Butterfly — C6UP2 — position and weather

sailwx.info

Track history (hours):
 
Tides and Currents Weather Stations Pressure Air Temp Water Temp Dewpoint Dewpoint Depression Visibility Wind Speed Wind Dir Waves Ship Positions

Butterfly

Last reported at 2014-Jul-28 05:33 UTC. Time now 2014-Jul-28 06:15 UTC.
Position N 45°37' W 073°30'.

Length 182 m; draft 6.9 m.

Type: Ship. MMSI: 311985000.

Date/timePositionNaut miles runAvg speedWind from/ knotsBaromVisibWave heightAir tempDewpointWater temp
2014-Jul-28 05:33N 45°37' W 073°30'1 0.8
2014-Jul-28 04:31N 45°37' W 073°30'0 0.0
2014-Jul-28 03:31N 45°37' W 073°30'0 0.0
2014-Jul-28 02:31N 45°37' W 073°30'0 0.0
2014-Jul-28 01:31N 45°37' W 073°30'0 0.0
2014-Jul-28 00:31N 45°37' W 073°30'0 0.0
2014-Jul-27 23:31N 45°37' W 073°30'0 0.0
2014-Jul-27 22:31N 45°37' W 073°30'0 0.0
2014-Jul-27 21:31N 45°37' W 073°30'0 0.0
2014-Jul-27 20:31N 45°37' W 073°30'0 0.0
2014-Jul-27 19:31N 45°37' W 073°30'0 0.0
2014-Jul-27 18:31N 45°37' W 073°30'0 0.0
2014-Jul-27 17:31N 45°37' W 073°30'0 0.0
2014-Jul-27 16:31N 45°37' W 073°30'0 0.0
2014-Jul-27 15:31N 45°37' W 073°30'0 0.0
2014-Jul-27 14:31N 45°37' W 073°30'0 0.0
2014-Jul-27 13:31N 45°37' W 073°30'0 0.0
2014-Jul-27 12:31N 45°37' W 073°30'0 0.0
2014-Jul-27 11:31N 45°37' W 073°30'0 0.0
2014-Jul-27 10:31N 45°37' W 073°30'0 0.0
2014-Jul-27 09:31N 45°37' W 073°30'0 0.0
2014-Jul-27 08:31N 45°37' W 073°30'0 0.0
2014-Jul-27 07:31N 45°37' W 073°30'0 0.0
2014-Jul-27 06:31N 45°37' W 073°30'0 0.0
2014-Jul-27 05:33N 45°37' W 073°30'4 4.4
2014-Jul-27 04:33N 45°41' W 073°27'10 9.8
2014-Jul-27 03:33N 45°49' W 073°19'10 9.9
2014-Jul-27 02:33N 45°57' W 073°12'9 9.0
2014-Jul-27 01:33N 46°04' W 073°03'1210.6
2014-Jul-27 00:28N 46°12' W 072°52'1112.1
2014-Jul-26 23:33N 46°16' W 072°37'10 9.5
2014-Jul-26 22:33N 46°23' W 072°27'9 8.6
2014-Jul-26 21:33N 46°27' W 072°16'10 9.5
2014-Jul-26 20:33N 46°34' W 072°07'10 8.4
2014-Jul-26 19:23N 46°39' W 071°54'  
Track history (hours):
 
Tides and Currents Weather Stations Pressure Air Temp Water Temp Dewpoint Dewpoint Depression Visibility Wind Speed Wind Dir Waves Ship Positions

Butterfly

Last reported at 2014-Jul-28 05:33 UTC. Time now 2014-Jul-28 06:15 UTC.
Position N 45°37' W 073°30'.

Length 182 m; draft 6.9 m.

Type: Ship. MMSI: 311985000.

Date/timePositionNaut miles runAvg speedWind from/ knotsBaromVisibWave heightAir tempDewpointWater temp
2014-Jul-28 05:33N 45°37' W 073°30'1 0.8
2014-Jul-28 04:31N 45°37' W 073°30'0 0.0
2014-Jul-28 03:31N 45°37' W 073°30'0 0.0
2014-Jul-28 02:31N 45°37' W 073°30'0 0.0
2014-Jul-28 01:31N 45°37' W 073°30'0 0.0
2014-Jul-28 00:31N 45°37' W 073°30'0 0.0
2014-Jul-27 23:31N 45°37' W 073°30'0 0.0
2014-Jul-27 22:31N 45°37' W 073°30'0 0.0
2014-Jul-27 21:31N 45°37' W 073°30'0 0.0
2014-Jul-27 20:31N 45°37' W 073°30'0 0.0
2014-Jul-27 19:31N 45°37' W 073°30'0 0.0
2014-Jul-27 18:31N 45°37' W 073°30'0 0.0
2014-Jul-27 17:31N 45°37' W 073°30'0 0.0
2014-Jul-27 16:31N 45°37' W 073°30'0 0.0
2014-Jul-27 15:31N 45°37' W 073°30'0 0.0
2014-Jul-27 14:31N 45°37' W 073°30'0 0.0
2014-Jul-27 13:31N 45°37' W 073°30'0 0.0
2014-Jul-27 12:31N 45°37' W 073°30'0 0.0
2014-Jul-27 11:31N 45°37' W 073°30'0 0.0
2014-Jul-27 10:31N 45°37' W 073°30'0 0.0
2014-Jul-27 09:31N 45°37' W 073°30'0 0.0
2014-Jul-27 08:31N 45°37' W 073°30'0 0.0
2014-Jul-27 07:31N 45°37' W 073°30'0 0.0
2014-Jul-27 06:31N 45°37' W 073°30'0 0.0
2014-Jul-27 05:33N 45°37' W 073°30'4 4.4
2014-Jul-27 04:33N 45°41' W 073°27'10 9.8
2014-Jul-27 03:33N 45°49' W 073°19'10 9.9
2014-Jul-27 02:33N 45°57' W 073°12'9 9.0
2014-Jul-27 01:33N 46°04' W 073°03'1210.6
2014-Jul-27 00:28N 46°12' W 072°52'1112.1
2014-Jul-26 23:33N 46°16' W 072°37'10 9.5
2014-Jul-26 22:33N 46°23' W 072°27'9 8.6
2014-Jul-26 21:33N 46°27' W 072°16'10 9.5
2014-Jul-26 20:33N 46°34' W 072°07'10 8.4
2014-Jul-26 19:23N 46°39' W 071°54'  

Dump ship's entire track history